Time;durP1;ratioP1;P1;durP2;ratioP2;P2;SDS_P1;SDS_P2;PMS_P1;PMS_P2;Temp;Humidity;BMP_temperature;BMP_pressure;BME280_temperature;BME280_humidity;BME280_pressure;Samples;Min_cycle;Max_cycle;Signal;HPM_P1;HPM_P2
2023/03/26 00:01:28;;;;;;;0.83;0.83;;;8.60;99.90;;;;;;5052882;28;20295;-49
2023/03/26 00:03:56;;;;;;;1.53;0.90;;;8.60;99.90;;;;;;5052750;28;20704;-50
2023/03/26 00:06:25;;;;;;;0.80;0.80;;;8.50;99.90;;;;;;5052369;28;20387;-49
2023/03/26 00:08:53;;;;;;;3.20;0.93;;;8.50;99.90;;;;;;5052623;28;20200;-50
2023/03/26 00:11:22;;;;;;;1.23;1.03;;;8.50;99.90;;;;;;5053253;28;20200;-51
2023/03/26 00:13:52;;;;;;;0.87;0.70;;;8.40;99.90;;;;;;5053033;28;20219;-49
2023/03/26 00:16:20;;;;;;;1.27;1.17;;;8.30;99.90;;;;;;5050649;28;20204;-51
2023/03/26 00:18:47;;;;;;;3.43;0.80;;;8.30;99.90;;;;;;5048536;28;20210;-50
2023/03/26 00:21:16;;;;;;;0.70;0.70;;;8.30;99.90;;;;;;5046699;28;20208;-51
2023/03/26 00:23:44;;;;;;;3.03;0.97;;;8.20;99.90;;;;;;5049416;28;20228;-49
2023/03/26 00:26:11;;;;;;;0.50;0.50;;;8.20;99.90;;;;;;5050818;28;20288;-49
2023/03/26 00:28:40;;;;;;;2.70;0.70;;;8.20;99.90;;;;;;5049513;28;20275;-49
2023/03/26 00:31:11;;;;;;;0.67;0.67;;;8.10;99.90;;;;;;5052290;28;20202;-49
2023/03/26 00:33:39;;;;;;;2.90;1.17;;;8.10;99.90;;;;;;5052657;28;20282;-49
2023/03/26 00:36:09;;;;;;;1.03;0.90;;;8.00;99.90;;;;;;5049358;28;20190;-49
2023/03/26 00:38:37;;;;;;;1.00;0.87;;;8.00;99.90;;;;;;5050353;28;20712;-50
2023/03/26 00:41:06;;;;;;;1.57;0.77;;;8.00;99.90;;;;;;5045253;28;20224;-49
2023/03/26 00:43:35;;;;;;;1.90;0.60;;;7.90;99.90;;;;;;5051756;28;20578;-49
2023/03/26 00:46:02;;;;;;;0.50;0.50;;;7.80;99.90;;;;;;5051824;28;20212;-48
2023/03/26 00:48:33;;;;;;;1.23;0.47;;;7.80;99.90;;;;;;5051267;28;20208;-49
2023/03/26 00:51:00;;;;;;;0.70;0.70;;;7.80;99.90;;;;;;5046788;28;20195;-48
2023/03/26 00:53:27;;;;;;;0.50;0.50;;;7.80;99.90;;;;;;5049081;28;20713;-48
2023/03/26 00:55:59;;;;;;;0.90;0.50;;;7.80;99.90;;;;;;5050301;28;20227;-49
2023/03/26 00:58:26;;;;;;;1.37;0.40;;;7.80;99.90;;;;;;5050308;28;20215;-49
2023/03/26 01:00:56;;;;;;;0.70;0.50;;;7.80;99.90;;;;;;5051991;28;20330;-48
2023/03/26 01:03:25;;;;;;;0.70;0.70;;;7.90;99.90;;;;;;5051776;28;20319;-49
2023/03/26 01:06:03;;;;;;;1.33;0.70;;;7.90;99.90;;;;;;5040330;28;20569;-50
2023/03/26 01:08:35;;;;;;;0.93;0.50;;;7.90;99.90;;;;;;5046119;28;20263;-49
2023/03/26 01:11:06;;;;;;;0.60;0.60;;;7.90;99.90;;;;;;5040979;28;20204;-49
2023/03/26 01:13:36;;;;;;;0.40;0.40;;;7.90;99.90;;;;;;5049392;28;20761;-48
2023/03/26 01:16:10;;;;;;;1.33;0.50;;;7.90;99.90;;;;;;5051648;28;20274;-49
2023/03/26 01:18:40;;;;;;;1.90;0.70;;;8.00;99.90;;;;;;5043814;28;20273;-48
2023/03/26 01:21:12;;;;;;;1.13;0.53;;;8.00;99.90;;;;;;5051613;28;20308;-49
2023/03/26 01:23:44;;;;;;;1.30;0.40;;;7.90;99.90;;;;;;5049360;28;20710;-49
2023/03/26 01:26:25;;;;;;;0.80;0.40;;;7.90;99.90;;;;;;5044631;28;20203;-49
2023/03/26 01:28:56;;;;;;;0.70;0.50;;;7.90;99.90;;;;;;5048613;28;20261;-49
2023/03/26 01:31:30;;;;;;;1.27;0.70;;;7.90;99.90;;;;;;5042725;28;20208;-49
2023/03/26 01:34:04;;;;;;;2.10;0.70;;;7.90;99.90;;;;;;5044046;28;20720;-48
2023/03/26 01:36:39;;;;;;;2.83;0.77;;;7.90;99.90;;;;;;5042645;28;20559;-48
2023/03/26 01:39:11;;;;;;;0.63;0.40;;;7.80;99.90;;;;;;5047186;28;20211;-48
2023/03/26 01:41:44;;;;;;;1.20;0.50;;;7.90;99.90;;;;;;5048389;28;20203;-49
2023/03/26 01:44:20;;;;;;;0.60;0.60;;;7.80;99.90;;;;;;5048284;28;20235;-48
2023/03/26 01:46:48;;;;;;;0.47;0.40;;;7.80;99.90;;;;;;5051537;28;20673;-49
2023/03/26 01:49:15;;;;;;;0.30;0.30;;;7.80;99.90;;;;;;5050648;28;20701;-48
2023/03/26 01:51:43;;;;;;;0.43;0.43;;;7.80;99.90;;;;;;5049535;28;20648;-49
2023/03/26 01:54:15;;;;;;;0.40;0.40;;;7.80;99.90;;;;;;5050099;28;20236;-49
2023/03/26 01:56:52;;;;;;;0.50;0.30;;;7.80;99.90;;;;;;5051126;28;20258;-49
2023/03/26 01:59:34;;;;;;;0.40;0.40;;;7.80;99.90;;;;;;5050618;28;20675;-48
2023/03/26 02:02:09;;;;;;;0.23;0.23;;;7.70;99.90;;;;;;5051454;28;20329;-48
2023/03/26 02:04:47;;;;;;;4.27;0.50;;;7.60;99.90;;;;;;5049665;28;20194;-50
2023/03/26 02:07:21;;;;;;;4.23;0.60;;;7.60;99.90;;;;;;5050455;28;20202;-47
2023/03/26 02:09:51;;;;;;;0.67;0.60;;;7.60;99.90;;;;;;5050826;28;20819;-50
2023/03/26 02:12:21;;;;;;;0.63;0.40;;;7.70;99.90;;;;;;5050935;28;20203;-48
2023/03/26 02:14:48;;;;;;;2.93;0.30;;;7.60;99.90;;;;;;5051178;28;20226;-48
2023/03/26 02:17:15;;;;;;;2.07;0.70;;;7.60;99.90;;;;;;5050053;28;20566;-48
2023/03/26 02:19:42;;;;;;;0.37;0.37;;;7.60;99.90;;;;;;5050009;28;20211;-48
2023/03/26 02:22:14;;;;;;;1.60;0.50;;;7.50;99.90;;;;;;5045180;28;20199;-48
2023/03/26 02:24:41;;;;;;;2.10;0.43;;;7.50;99.90;;;;;;5051165;28;20629;-49
2023/03/26 02:27:11;;;;;;;0.83;0.30;;;7.50;99.90;;;;;;5051085;28;20266;-47
2023/03/26 02:29:40;;;;;;;1.17;0.40;;;7.50;99.90;;;;;;5048500;28;20585;-49
2023/03/26 02:32:07;;;;;;;1.60;0.30;;;7.60;99.90;;;;;;5049973;28;20273;-47
2023/03/26 02:34:35;;;;;;;0.20;0.20;;;7.60;99.90;;;;;;5050103;28;20699;-48
2023/03/26 02:37:02;;;;;;;0.30;0.30;;;7.60;99.90;;;;;;5050719;28;20201;-47
2023/03/26 02:39:29;;;;;;;0.87;0.63;;;7.50;99.90;;;;;;5050266;28;20273;-49
2023/03/26 02:41:56;;;;;;;0.40;0.40;;;7.50;99.90;;;;;;5049777;28;20287;-48
2023/03/26 02:44:23;;;;;;;0.63;0.33;;;7.50;99.90;;;;;;5050603;28;20285;-49
2023/03/26 02:46:52;;;;;;;0.40;0.40;;;7.50;99.90;;;;;;5050727;28;20234;-48
2023/03/26 02:49:19;;;;;;;0.57;0.20;;;7.50;99.90;;;;;;5049443;28;20203;-48
2023/03/26 02:51:46;;;;;;;0.37;0.30;;;7.50;99.90;;;;;;5050558;28;20195;-48
2023/03/26 02:54:15;;;;;;;1.67;0.20;;;7.40;99.90;;;;;;5048765;28;20937;-48
2023/03/26 02:56:42;;;;;;;0.87;0.40;;;7.40;99.90;;;;;;5050430;28;20727;-48
2023/03/26 02:59:09;;;;;;;0.20;0.20;;;7.40;99.90;;;;;;5049966;28;20203;-47
2023/03/26 03:01:41;;;;;;;3.23;0.90;;;7.40;99.90;;;;;;5050625;28;20213;-49
2023/03/26 03:04:10;;;;;;;0.40;0.20;;;7.40;99.90;;;;;;5051966;28;20242;-47
2023/03/26 03:06:39;;;;;;;0.87;0.33;;;7.30;99.90;;;;;;5052553;28;20333;-49
2023/03/26 03:09:07;;;;;;;1.03;0.30;;;7.30;99.90;;;;;;5052944;28;20265;-49
2023/03/26 03:11:34;;;;;;;0.30;0.30;;;7.30;99.90;;;;;;5054141;28;20200;-49
2023/03/26 03:14:01;;;;;;;1.27;0.47;;;7.30;99.90;;;;;;5054121;28;20232;-47
2023/03/26 03:16:29;;;;;;;0.30;0.30;;;7.30;99.90;;;;;;5054333;28;20261;-48
2023/03/26 03:18:56;;;;;;;0.20;0.20;;;7.30;99.90;;;;;;5051017;28;20213;-49
2023/03/26 03:21:26;;;;;;;1.33;0.80;;;7.30;99.90;;;;;;5049434;28;20629;-48
2023/03/26 03:23:53;;;;;;;0.30;0.30;;;7.40;99.90;;;;;;5052175;28;20218;-49
2023/03/26 03:26:26;;;;;;;0.50;0.10;;;7.30;99.90;;;;;;5054096;28;20203;-49
2023/03/26 03:28:53;;;;;;;0.30;0.30;;;7.40;99.90;;;;;;5053639;28;20605;-49
2023/03/26 03:31:21;;;;;;;0.43;0.30;;;7.40;99.90;;;;;;5051719;28;20207;-49
2023/03/26 03:33:48;;;;;;;0.30;0.20;;;7.40;99.90;;;;;;5051483;28;20315;-49
2023/03/26 03:36:18;;;;;;;0.20;0.20;;;7.30;99.90;;;;;;5053661;28;20220;-48
2023/03/26 03:38:46;;;;;;;0.40;0.40;;;7.30;99.90;;;;;;5053203;28;20733;-49
2023/03/26 03:41:13;;;;;;;0.20;0.20;;;7.30;99.90;;;;;;5053789;28;20249;-48
2023/03/26 03:43:40;;;;;;;0.20;0.20;;;7.20;99.90;;;;;;5053602;28;20227;-48
2023/03/26 03:46:07;;;;;;;1.00;0.33;;;7.20;99.90;;;;;;5051366;28;20214;-48
2023/03/26 03:48:37;;;;;;;0.23;0.20;;;7.20;99.90;;;;;;5052919;28;20253;-49
2023/03/26 03:51:05;;;;;;;1.47;0.40;;;7.20;99.90;;;;;;5051899;28;20200;-48
2023/03/26 03:53:35;;;;;;;0.20;0.20;;;7.10;99.90;;;;;;5053090;28;20323;-49
2023/03/26 03:56:08;;;;;;;0.27;0.20;;;7.20;99.90;;;;;;5053664;28;20224;-49
2023/03/26 03:58:36;;;;;;;0.20;0.20;;;7.10;99.90;;;;;;5051802;28;20584;-48
2023/03/26 04:01:03;;;;;;;0.80;0.80;;;7.20;99.90;;;;;;5052693;28;20199;-48
2023/03/26 04:03:30;;;;;;;0.80;0.80;;;7.30;99.90;;;;;;5053180;28;20218;-49
2023/03/26 04:05:57;;;;;;;0.50;0.50;;;7.30;99.90;;;;;;5052981;28;20282;-48
2023/03/26 04:08:24;;;;;;;0.30;0.30;;;7.20;99.90;;;;;;5052455;28;20247;-49
2023/03/26 04:10:52;;;;;;;1.33;0.20;;;7.20;99.90;;;;;;5052242;28;20254;-49
2023/03/26 04:13:20;;;;;;;0.23;0.23;;;7.20;99.90;;;;;;5052965;28;20277;-49
2023/03/26 04:15:47;;;;;;;0.20;0.20;;;7.20;99.90;;;;;;5055410;28;20223;-49
2023/03/26 04:18:14;;;;;;;0.27;0.27;;;7.20;99.90;;;;;;5052721;28;20677;-47
2023/03/26 04:20:45;;;;;;;0.90;0.67;;;7.30;99.90;;;;;;5053143;28;20277;-48
2023/03/26 04:23:13;;;;;;;1.60;0.23;;;7.30;99.90;;;;;;5049622;28;20573;-49
2023/03/26 04:25:41;;;;;;;0.60;0.20;;;7.20;99.90;;;;;;5052969;28;20250;-49
2023/03/26 04:28:10;;;;;;;0.20;0.20;;;7.20;99.90;;;;;;5048803;28;20595;-49
2023/03/26 04:30:41;;;;;;;0.27;0.23;;;7.30;99.90;;;;;;5042229;28;20294;-48
2023/03/26 04:33:14;;;;;;;0.50;0.30;;;7.30;99.90;;;;;;5052212;28;20318;-49
2023/03/26 04:35:43;;;;;;;0.17;0.17;;;7.30;99.90;;;;;;5051691;28;20225;-47
2023/03/26 04:38:11;;;;;;;0.30;0.30;;;7.30;99.90;;;;;;5052218;28;20243;-48
2023/03/26 04:40:38;;;;;;;1.00;0.40;;;7.30;99.90;;;;;;5052712;28;20203;-47
2023/03/26 04:43:05;;;;;;;0.50;0.20;;;7.40;99.90;;;;;;5051848;28;20636;-48
2023/03/26 04:45:32;;;;;;;0.87;0.20;;;7.40;99.90;;;;;;5052412;28;20200;-47
2023/03/26 04:48:06;;;;;;;0.10;0.10;;;7.40;99.90;;;;;;5049970;28;20269;-47
2023/03/26 04:50:33;;;;;;;0.80;0.30;;;7.50;99.90;;;;;;5052425;28;20204;-46
2023/03/26 04:53:01;;;;;;;1.40;0.17;;;7.50;99.90;;;;;;5052182;28;20309;-47
2023/03/26 04:55:33;;;;;;;0.20;0.20;;;7.50;99.90;;;;;;5050861;28;20310;-48
2023/03/26 04:58:04;;;;;;;0.23;0.20;;;7.50;99.90;;;;;;5050947;28;20219;-47
2023/03/26 05:00:32;;;;;;;0.20;0.20;;;7.50;99.90;;;;;;5042741;28;20230;-48
2023/03/26 05:03:04;;;;;;;0.20;0.20;;;7.50;99.90;;;;;;5032327;28;20225;-47
2023/03/26 05:05:31;;;;;;;0.20;0.20;;;7.50;99.90;;;;;;5032461;28;20200;-48
2023/03/26 05:07:58;;;;;;;0.20;0.20;;;7.50;99.90;;;;;;5037538;28;20327;-48
2023/03/26 05:10:25;;;;;;;0.27;0.27;;;7.50;99.90;;;;;;5051422;28;20662;-48
2023/03/26 05:12:52;;;;;;;0.87;0.20;;;7.60;99.90;;;;;;5041888;28;20223;-47
2023/03/26 05:15:19;;;;;;;0.23;0.10;;;7.60;99.90;;;;;;5051988;28;20250;-47
2023/03/26 05:17:47;;;;;;;0.33;0.10;;;7.50;99.90;;;;;;5046025;28;20681;-47
2023/03/26 05:20:20;;;;;;;1.07;0.20;;;7.50;99.90;;;;;;5032191;28;20296;-47
2023/03/26 05:22:47;;;;;;;1.23;0.10;;;7.40;99.90;;;;;;5049655;28;20309;-47
2023/03/26 05:25:15;;;;;;;0.30;0.10;;;7.40;99.90;;;;;;5049279;28;20258;-48
2023/03/26 05:27:42;;;;;;;0.27;0.27;;;7.40;99.90;;;;;;5050632;28;20195;-48
2023/03/26 05:30:13;;;;;;;0.73;0.20;;;7.40;99.90;;;;;;5051685;28;20265;-47
2023/03/26 05:32:40;;;;;;;0.43;0.20;;;7.40;99.90;;;;;;5051653;28;20301;-46
2023/03/26 05:35:08;;;;;;;0.20;0.20;;;7.40;99.90;;;;;;5051627;28;20216;-47
2023/03/26 05:37:37;;;;;;;0.20;0.20;;;7.30;99.90;;;;;;5051312;28;20225;-48
2023/03/26 05:40:10;;;;;;;0.53;0.40;;;7.30;99.90;;;;;;5050870;28;20237;-47
2023/03/26 05:42:37;;;;;;;1.43;0.50;;;7.40;99.90;;;;;;5051480;28;20595;-47
2023/03/26 05:45:05;;;;;;;0.10;0.10;;;7.40;99.90;;;;;;5051693;28;20268;-47
2023/03/26 05:47:32;;;;;;;0.37;0.30;;;7.40;99.90;;;;;;5051498;28;20260;-48
2023/03/26 05:49:59;;;;;;;0.20;0.20;;;7.50;99.90;;;;;;5050789;28;20310;-47
2023/03/26 05:52:26;;;;;;;0.57;0.10;;;7.40;99.90;;;;;;5051258;28;20612;-46
2023/03/26 05:54:54;;;;;;;0.30;0.30;;;7.50;99.90;;;;;;5050552;28;20194;-48
2023/03/26 05:57:22;;;;;;;0.43;0.20;;;7.50;99.90;;;;;;5051299;28;20230;-48
2023/03/26 05:59:50;;;;;;;0.20;0.20;;;7.50;99.90;;;;;;5050646;28;20210;-47
2023/03/26 06:02:16;;;;;;;0.20;0.20;;;7.40;99.90;;;;;;5051091;28;20215;-47
2023/03/26 06:04:44;;;;;;;0.43;0.20;;;7.40;99.90;;;;;;5051078;28;20211;-47
2023/03/26 06:07:11;;;;;;;1.43;0.27;;;7.50;99.90;;;;;;5039846;28;20203;-48
2023/03/26 06:09:39;;;;;;;0.10;0.10;;;7.50;99.90;;;;;;5045178;28;20224;-47
2023/03/26 06:12:09;;;;;;;0.20;0.20;;;7.50;99.90;;;;;;5051466;28;20615;-47
2023/03/26 06:14:37;;;;;;;0.37;0.37;;;7.40;99.90;;;;;;5050965;28;20247;-46
2023/03/26 06:17:04;;;;;;;0.40;0.40;;;7.50;99.90;;;;;;5050859;28;20215;-47
2023/03/26 06:19:31;;;;;;;0.57;0.30;;;7.50;99.90;;;;;;5050580;28;20214;-48
2023/03/26 06:21:58;;;;;;;3.47;0.70;;;7.50;99.90;;;;;;5051084;28;20234;-46
2023/03/26 06:24:25;;;;;;;2.57;0.33;;;7.60;99.90;;;;;;5048102;28;20694;-47
2023/03/26 06:26:52;;;;;;;0.17;0.10;;;7.60;99.90;;;;;;5050847;28;20685;-47
2023/03/26 06:29:20;;;;;;;0.10;0.10;;;7.50;99.90;;;;;;5050131;28;20215;-47
2023/03/26 06:31:47;;;;;;;0.10;0.10;;;7.50;99.90;;;;;;5050734;28;20205;-48
2023/03/26 06:34:14;;;;;;;1.90;0.30;;;7.50;99.90;;;;;;5050742;28;20227;-47
2023/03/26 06:36:41;;;;;;;1.07;0.53;;;7.60;99.90;;;;;;5050684;28;20261;-49
2023/03/26 06:39:08;;;;;;;1.23;0.77;;;7.60;99.90;;;;;;5052307;28;20222;-47
2023/03/26 06:41:35;;;;;;;0.70;0.70;;;7.60;99.90;;;;;;5054647;28;20286;-47
2023/03/26 06:44:02;;;;;;;0.70;0.70;;;7.60;99.90;;;;;;5054943;28;20222;-47
2023/03/26 06:46:31;;;;;;;1.40;0.20;;;7.60;99.90;;;;;;5054887;28;20800;-47
2023/03/26 06:48:58;;;;;;;0.30;0.30;;;7.70;99.90;;;;;;5054088;28;20250;-47
2023/03/26 06:51:25;;;;;;;0.30;0.30;;;7.80;99.90;;;;;;5054727;28;20296;-47
2023/03/26 06:53:52;;;;;;;0.97;0.40;;;7.80;99.90;;;;;;5054362;28;20609;-46
2023/03/26 06:56:19;;;;;;;0.40;0.40;;;7.90;99.90;;;;;;5052733;28;20238;-46
2023/03/26 06:58:46;;;;;;;0.60;0.40;;;7.90;99.90;;;;;;5053909;28;20199;-48
2023/03/26 07:01:13;;;;;;;0.40;0.20;;;7.90;99.90;;;;;;5054632;28;20620;-47
2023/03/26 07:03:42;;;;;;;0.20;0.20;;;7.90;99.90;;;;;;5054672;28;20317;-47
2023/03/26 07:06:09;;;;;;;0.30;0.30;;;8.00;99.90;;;;;;5054357;28;20203;-48
2023/03/26 07:08:36;;;;;;;0.20;0.20;;;8.10;99.90;;;;;;5054131;28;20558;-47
2023/03/26 07:11:03;;;;;;;0.73;0.40;;;8.10;99.90;;;;;;5054183;28;20206;-48
2023/03/26 07:13:31;;;;;;;1.90;0.57;;;8.10;99.90;;;;;;5053659;28;20289;-47
2023/03/26 07:15:58;;;;;;;0.57;0.57;;;8.10;99.90;;;;;;5054644;28;20218;-48
2023/03/26 07:18:25;;;;;;;0.30;0.30;;;8.10;99.90;;;;;;5054002;28;20204;-48
2023/03/26 07:20:54;;;;;;;2.47;0.37;;;8.20;99.90;;;;;;5054284;28;20214;-47
2023/03/26 07:23:22;;;;;;;0.40;0.33;;;8.20;99.90;;;;;;5049492;28;20228;-47
2023/03/26 07:25:49;;;;;;;0.60;0.60;;;8.20;99.90;;;;;;5052156;28;20199;-47
2023/03/26 07:28:25;;;;;;;0.60;0.60;;;8.30;99.90;;;;;;5052669;28;20204;-47
2023/03/26 07:31:14;;;;;;;0.30;0.23;;;8.30;99.90;;;;;;5044922;28;20237;-48
2023/03/26 07:33:49;;;;;;;0.47;0.43;;;8.40;99.90;;;;;;5034711;28;20219;-48
2023/03/26 07:36:24;;;;;;;2.90;0.90;;;8.30;99.90;;;;;;5054380;28;20637;-48
2023/03/26 07:39:06;;;;;;;1.87;1.37;;;8.30;99.90;;;;;;5053648;28;20205;-48
2023/03/26 07:41:39;;;;;;;2.00;1.70;;;8.30;99.90;;;;;;5054667;28;20250;-48
2023/03/26 07:44:21;;;;;;;1.63;1.53;;;8.30;99.90;;;;;;5052591;28;20639;-48
2023/03/26 07:46:52;;;;;;;1.80;0.90;;;8.30;99.90;;;;;;5054301;28;20216;-50
2023/03/26 07:49:20;;;;;;;0.60;0.60;;;8.20;99.90;;;;;;5053101;28;20247;-47
2023/03/26 07:51:49;;;;;;;1.03;0.80;;;8.30;99.90;;;;;;5054613;28;20751;-48
2023/03/26 07:54:16;;;;;;;2.87;0.90;;;8.10;99.90;;;;;;5054306;28;20235;-48
2023/03/26 07:56:51;;;;;;;1.00;1.00;;;8.10;99.90;;;;;;5054386;28;20222;-47
2023/03/26 07:59:26;;;;;;;0.73;0.73;;;8.10;99.90;;;;;;5052984;28;20638;-48
2023/03/26 08:02:07;;;;;;;1.27;0.97;;;8.00;99.90;;;;;;5054202;28;20281;-48
2023/03/26 08:04:55;;;;;;;2.00;1.43;;;7.90;99.90;;;;;;5078477;22;20281;-48
2023/03/26 08:07:34;;;;;;;0.90;0.90;;;7.90;99.90;;;;;;5073832;28;20557;-49
2023/03/26 08:10:08;;;;;;;0.70;0.70;;;7.80;99.90;;;;;;5073516;28;20194;-47
2023/03/26 08:12:45;;;;;;;1.17;1.17;;;7.70;99.90;;;;;;5073478;28;20199;-47
2023/03/26 08:15:21;;;;;;;1.03;1.03;;;7.70;99.90;;;;;;5073754;28;20213;-47
2023/03/26 08:17:52;;;;;;;2.03;1.70;;;7.70;99.90;;;;;;5073771;28;20225;-47
2023/03/26 08:20:30;;;;;;;3.23;1.40;;;7.60;99.90;;;;;;5071355;28;20588;-46
2023/03/26 08:23:08;;;;;;;3.83;2.77;;;7.60;99.90;;;;;;5065105;28;20282;-48
2023/03/26 08:25:48;;;;;;;6.40;2.33;;;7.60;99.90;;;;;;5072998;28;20225;-47
2023/03/26 08:28:30;;;;;;;1.90;1.67;;;7.60;99.90;;;;;;5069560;28;20690;-48
2023/03/26 08:30:57;;;;;;;5.17;1.80;;;7.60;99.90;;;;;;5082160;28;20236;-48
2023/03/26 08:33:27;;;;;;;1.63;1.30;;;7.60;99.90;;;;;;5076556;28;20300;-47
2023/03/26 08:35:54;;;;;;;3.33;1.07;;;7.60;99.90;;;;;;5072009;28;20635;-47
2023/03/26 08:38:23;;;;;;;2.33;1.40;;;7.60;99.90;;;;;;5072604;28;20592;-46
2023/03/26 08:41:22;;;;;;;1.67;1.50;;;7.70;99.90;;;;;;5074598;28;20200;-47
2023/03/26 08:44:16;;;;;;;3.70;2.00;;;7.70;99.90;;;;;;5083316;28;20215;-48
2023/03/26 08:47:12;;;;;;;4.63;2.27;;;7.70;99.90;;;;;;5072543;28;20269;-46
2023/03/26 08:50:10;;;;;;;3.03;2.83;;;7.60;99.90;;;;;;5070390;28;20195;-47
2023/03/26 08:53:09;;;;;;;3.20;2.07;;;7.60;99.90;;;;;;5072809;28;20220;-47
2023/03/26 08:55:58;;;;;;;2.60;1.87;;;7.50;99.90;;;;;;5088578;28;20212;-47
2023/03/26 08:58:56;;;;;;;2.30;2.00;;;7.50;99.90;;;;;;5087116;28;20308;-46
2023/03/26 09:01:46;;;;;;;2.00;1.57;;;7.50;99.90;;;;;;5081979;28;20205;-47
2023/03/26 09:04:46;;;;;;;1.93;1.63;;;7.50;99.90;;;;;;5071388;28;20230;-47
2023/03/26 09:07:53;;;;;;;1.80;1.70;;;7.40;99.90;;;;;;5079120;28;20560;-47
2023/03/26 09:11:02;;;;;;;3.53;1.37;;;7.30;99.90;;;;;;5067376;28;20284;-47
2023/03/26 09:14:11;;;;;;;0.70;0.63;;;7.30;99.90;;;;;;5060457;28;20249;-47
2023/03/26 09:17:16;;;;;;;1.27;0.67;;;7.30;99.90;;;;;;5071926;28;20207;-49
2023/03/26 09:20:34;;;;;;;0.83;0.70;;;7.30;99.90;;;;;;5077401;28;20202;-49
2023/03/26 09:23:33;;;;;;;0.77;0.77;;;7.30;99.90;;;;;;5064484;28;20195;-46
2023/03/26 09:26:23;;;;;;;0.93;0.87;;;7.30;99.90;;;;;;5071475;28;20738;-47
2023/03/26 09:29:35;;;;;;;1.00;0.90;;;7.30;99.90;;;;;;5079553;28;20725;-48
2023/03/26 09:32:46;;;;;;;1.73;0.90;;;7.40;99.90;;;;;;5042493;28;20281;-47
2023/03/26 09:35:47;;;;;;;2.65;0.95;;;7.40;99.90;;;;;;5062856;28;20805;-48
2023/03/26 09:38:39;;;;;;;0.93;0.83;;;7.50;99.90;;;;;;5067984;28;20269;-48
2023/03/26 09:41:13;;;;;;;2.20;0.60;;;7.60;99.90;;;;;;5063864;28;20210;-48
2023/03/26 09:44:24;;;;;;;0.83;0.83;;;7.50;99.90;;;;;;5071116;28;20383;-48
2023/03/26 09:47:09;;;;;;;1.45;1.23;;;7.60;99.90;;;;;;5067114;28;20453;-48
2023/03/26 09:49:49;;;;;;;2.67;0.70;;;7.50;99.90;;;;;;5067987;28;20668;-49
2023/03/26 09:52:37;;;;;;;0.60;0.60;;;7.60;99.90;;;;;;5071765;28;20228;-47
2023/03/26 09:55:29;;;;;;;1.03;0.83;;;7.60;99.90;;;;;;5065302;28;20225;-46
2023/03/26 09:58:23;;;;;;;0.67;0.67;;;7.80;99.90;;;;;;5069971;28;20711;-46
2023/03/26 10:00:59;;;;;;;1.60;0.60;;;7.90;99.90;;;;;;5068573;28;20210;-48
2023/03/26 10:03:36;;;;;;;0.60;0.60;;;8.00;99.90;;;;;;5064386;28;20202;-47
2023/03/26 10:06:36;;;;;;;1.13;1.00;;;8.20;99.90;;;;;;5067613;28;20199;-49
2023/03/26 10:09:20;;;;;;;1.37;0.50;;;8.60;99.90;;;;;;5056242;28;20704;-48
2023/03/26 10:12:06;;;;;;;1.47;0.40;;;9.10;99.90;;;;;;5072104;28;20204;-47
2023/03/26 10:14:38;;;;;;;1.40;0.50;;;9.60;99.90;;;;;;5071753;28;20233;-47
2023/03/26 10:17:20;;;;;;;0.37;0.37;;;9.90;99.90;;;;;;5091964;28;20226;-46
2023/03/26 10:19:59;;;;;;;1.90;0.53;;;9.90;99.90;;;;;;5069373;28;20210;-48
2023/03/26 10:22:38;;;;;;;1.20;0.30;;;9.80;99.90;;;;;;5071551;28;20236;-46
2023/03/26 10:25:35;;;;;;;0.93;0.60;;;9.60;99.90;;;;;;5071748;28;20252;-46
2023/03/26 10:28:19;;;;;;;0.63;0.40;;;9.60;99.90;;;;;;5069297;28;20249;-47
2023/03/26 10:31:07;;;;;;;1.80;0.50;;;9.50;99.90;;;;;;5069569;28;20211;-48
2023/03/26 10:33:43;;;;;;;0.20;0.20;;;9.30;99.90;;;;;;5069412;28;20240;-47
2023/03/26 10:36:32;;;;;;;0.20;0.20;;;9.20;99.90;;;;;;5076765;28;20205;-47
2023/03/26 10:39:21;;;;;;;0.53;0.13;;;9.00;99.90;;;;;;5066601;28;20213;-47
2023/03/26 10:42:00;;;;;;;0.30;0.30;;;9.00;99.90;;;;;;5091762;28;20229;-47
2023/03/26 10:45:10;;;;;;;0.20;0.20;;;9.00;99.90;;;;;;5084242;28;20222;-47
2023/03/26 10:48:03;;;;;;;0.70;0.17;;;9.00;99.90;;;;;;5009292;28;20200;-48
2023/03/26 10:50:48;;;;;;;0.23;0.23;;;9.00;99.90;;;;;;5052702;28;20573;-48
2023/03/26 10:53:27;;;;;;;0.57;0.20;;;9.00;99.90;;;;;;5065313;28;20380;-47
2023/03/26 10:55:59;;;;;;;0.30;0.30;;;9.10;99.90;;;;;;5071373;28;20223;-47
2023/03/26 10:58:30;;;;;;;0.53;0.40;;;9.30;99.90;;;;;;5070457;28;20227;-49
2023/03/26 11:01:01;;;;;;;0.30;0.30;;;9.40;99.90;;;;;;5071285;28;20211;-48
2023/03/26 11:03:50;;;;;;;0.43;0.30;;;9.50;99.90;;;;;;5069791;28;20212;-47
2023/03/26 11:06:35;;;;;;;0.20;0.20;;;9.50;99.90;;;;;;5070913;28;20199;-48
2023/03/26 11:09:12;;;;;;;0.20;0.20;;;9.60;99.90;;;;;;5068485;28;20203;-47
2023/03/26 11:11:46;;;;;;;0.30;0.30;;;9.70;99.90;;;;;;5070927;28;20206;-48
2023/03/26 11:14:24;;;;;;;0.20;0.20;;;9.80;99.90;;;;;;5070977;28;20249;-47
2023/03/26 11:17:02;;;;;;;2.13;0.20;;;9.90;99.90;;;;;;5070949;28;20202;-48
2023/03/26 11:19:36;;;;;;;1.43;0.33;;;9.90;99.90;;;;;;5067131;28;20615;-50
2023/03/26 11:22:15;;;;;;;17.10;9.17;;;10.00;99.90;;;;;;5067082;28;20722;-47
2023/03/26 11:25:05;;;;;;;1.80;0.50;;;9.90;99.90;;;;;;5071541;28;20223;-48
2023/03/26 11:27:44;;;;;;;0.23;0.23;;;10.00;99.90;;;;;;5069984;28;20191;-48
2023/03/26 11:30:22;;;;;;;1.73;0.30;;;10.00;99.90;;;;;;5072781;28;20284;-47
2023/03/26 11:32:53;;;;;;;0.30;0.30;;;10.10;99.90;;;;;;5073006;28;20237;-46
2023/03/26 11:35:26;;;;;;;0.70;0.50;;;10.20;99.90;;;;;;5074506;28;20280;-48
2023/03/26 11:37:55;;;;;;;0.20;0.20;;;10.20;99.90;;;;;;5092440;28;20214;-47
2023/03/26 11:40:27;;;;;;;0.20;0.20;;;10.30;99.90;;;;;;5089402;28;20204;-48
2023/03/26 11:43:03;;;;;;;0.60;0.30;;;10.30;99.90;;;;;;5074089;28;20264;-48
2023/03/26 11:45:36;;;;;;;0.93;0.50;;;10.40;99.90;;;;;;5074179;28;20229;-47
2023/03/26 11:48:08;;;;;;;2.27;0.73;;;10.50;99.90;;;;;;5074124;28;20290;-47
2023/03/26 11:50:40;;;;;;;0.33;0.33;;;10.60;99.90;;;;;;5073576;28;20290;-48
2023/03/26 11:53:13;;;;;;;0.87;0.40;;;10.70;99.90;;;;;;5073685;28;20264;-47
2023/03/26 11:55:45;;;;;;;1.33;0.53;;;10.80;99.90;;;;;;5074015;28;20239;-47
2023/03/26 11:58:24;;;;;;;1.97;0.50;;;10.80;99.90;;;;;;5073047;28;20223;-47
2023/03/26 12:00:54;;;;;;;0.50;0.50;;;10.90;99.90;;;;;;5073937;28;20199;-47
2023/03/26 12:03:21;;;;;;;0.40;0.40;;;10.90;99.90;;;;;;5073215;28;20197;-46
2023/03/26 12:05:52;;;;;;;0.47;0.40;;;11.10;99.90;;;;;;5072858;28;20203;-46
2023/03/26 12:08:22;;;;;;;1.10;0.47;;;11.30;99.90;;;;;;5073359;28;20197;-48
2023/03/26 12:11:00;;;;;;;0.30;0.30;;;11.40;99.90;;;;;;5073995;28;20207;-48
2023/03/26 12:13:33;;;;;;;1.20;0.90;;;11.50;99.90;;;;;;5071126;28;20227;-48
2023/03/26 12:16:09;;;;;;;0.67;0.67;;;11.70;99.90;;;;;;5073246;28;20676;-48
2023/03/26 12:18:38;;;;;;;3.70;0.40;;;11.80;99.90;;;;;;5072987;28;20227;-47
2023/03/26 12:21:08;;;;;;;1.07;0.50;;;11.70;99.90;;;;;;5073631;28;20211;-47
2023/03/26 12:23:45;;;;;;;0.40;0.40;;;11.60;99.90;;;;;;5073620;28;20219;-48
2023/03/26 12:26:16;;;;;;;0.20;0.20;;;11.50;99.90;;;;;;5073514;28;20265;-50
2023/03/26 12:28:47;;;;;;;0.50;0.30;;;11.50;99.90;;;;;;5071398;28;20211;-47
2023/03/26 12:31:18;;;;;;;0.53;0.50;;;11.50;99.90;;;;;;5071599;28;20249;-49
2023/03/26 12:33:51;;;;;;;1.80;0.40;;;11.60;99.90;;;;;;5073205;28;20326;-48
2023/03/26 12:36:25;;;;;;;0.40;0.40;;;11.50;99.90;;;;;;5072979;28;20690;-47
2023/03/26 12:38:52;;;;;;;0.60;0.40;;;11.50;99.90;;;;;;5072534;28;20224;-47
2023/03/26 12:41:21;;;;;;;0.50;0.50;;;11.50;99.90;;;;;;5073215;28;20199;-49
2023/03/26 12:43:50;;;;;;;1.13;0.50;;;11.50;99.90;;;;;;5072847;28;20302;-48
2023/03/26 12:46:28;;;;;;;0.53;0.53;;;11.70;99.90;;;;;;5072988;28;20681;-48
2023/03/26 12:48:58;;;;;;;0.40;0.40;;;11.80;99.90;;;;;;5070234;28;20622;-48
2023/03/26 12:51:42;;;;;;;0.60;0.40;;;11.90;99.90;;;;;;5072866;28;20199;-50
2023/03/26 12:54:41;;;;;;;0.27;0.27;;;12.10;99.90;;;;;;5072981;28;20222;-48
2023/03/26 12:57:21;;;;;;;1.03;0.50;;;12.20;99.90;;;;;;5065892;28;20202;-47
2023/03/26 13:00:08;;;;;;;0.30;0.30;;;12.20;99.90;;;;;;5069241;28;20219;-48
2023/03/26 13:03:16;;;;;;;0.53;0.40;;;12.10;99.90;;;;;;5036690;28;20238;-48
2023/03/26 13:06:14;;;;;;;1.27;0.30;;;11.90;99.90;;;;;;5031726;28;20221;-47
2023/03/26 13:09:04;;;;;;;0.47;0.30;;;11.90;99.90;;;;;;5032040;28;20675;-48
2023/03/26 13:11:42;;;;;;;1.53;0.50;;;11.90;99.90;;;;;;5033421;28;20678;-47
2023/03/26 13:14:30;;;;;;;0.50;0.33;;;11.90;99.90;;;;;;5033369;28;20233;-48
2023/03/26 13:17:03;;;;;;;0.60;0.60;;;11.90;99.90;;;;;;5030232;28;20278;-48
2023/03/26 13:19:39;;;;;;;0.23;0.23;;;11.90;99.90;;;;;;5028909;28;20231;-47
2023/03/26 13:22:18;;;;;;;0.40;0.40;;;11.90;99.90;;;;;;5026709;28;20622;-48
2023/03/26 13:24:53;;;;;;;0.47;0.17;;;11.90;99.90;;;;;;5032468;28;20222;-49
2023/03/26 13:27:36;;;;;;;0.20;0.20;;;11.80;99.90;;;;;;5032365;28;20752;-47
2023/03/26 13:30:13;;;;;;;0.53;0.20;;;11.80;99.90;;;;;;5031752;28;20208;-48
2023/03/26 13:32:56;;;;;;;0.20;0.20;;;11.90;99.90;;;;;;5031370;28;20200;-47